aviador You're here:

WBKL Decoded Metar

LABUAN in MALAYSIA
Report Time2018-05-21 19:00:00
UTC Time2018-05-21 20:10:31
Flight Rules Old
WindVRB at 02 kt
Visibility9999 m
Phenomena:N/A
Clouds:Few 013 Hf
Broken 290 Hf
Expected CloudBase > 400 ft AGL from Temp-Dew spread
Ceiling29,000 ft
Temp26°C (ISA +11)
Dew Point25°C (94% RH)
QNH1008 hPa
Density Alt1,975 ft
Elevation98 ft
Report Wrong Elevation
Raw Report
METAR WBKL 211900Z VRB02KT 9999 FEW013 BKN290 26/25 Q1008=

Extra information for WBKL:More info

Metar Taf Metar & Taf Last 4 Metars F.Rules Stats Wind Profile Meteogram Temp Stats Airport Information Weather charts Add Link Nearby VenuesMetar ALERT Operation Metar Decoded Social comments